• Join FlightAware (Why Join?)
  • Login
  • US Flag 
09:16PM EDT


 

Airport Tracker/Info


-or-


 

Live Flight TrackerFlight Track Log ✈ N932CD ✈ 30-Jun-2013 ✈ KFPR - KJZI

Flight Track Log - Related Links

Times and Time Zones

All times are in EDT time to prevent confusion due to time zone crossing. See the N932CD flight status page for this flight to view local times or setup timezone preferences in your user account.

Time Position Orientation Groundspeed Altitude Reporting Facility
EDT Latitude Longitude Course Direction KTS MPH feet Rate Location/Type
01:17PM 27.4667 -80.3653 156° South 60 69 800  Level Miami Center
01:18PM 27.4522 -80.3581 156° South 60 69 1,200 420 Climbing Miami Center
01:19PM 27.4572 -80.3231 81° East 80 92 1,700 480 Climbing Miami Center
01:20PM 27.4642 -80.2928 76° East 101 116 2,200 480 Climbing Miami Center
01:21PM 27.4714 -80.2603 76° East 101 116 2,700 420 Climbing Miami Center
01:22PM 27.4783 -80.2322 74° East 102 117 3,100 360 Climbing Miami Center
01:23PM 27.4894 -80.2000 69° East 102 117 3,500 480 Climbing Miami Center
01:24PM 27.5272 -80.1964 North 97 112 4,100 480 Climbing Miami Center
01:25PM 27.5583 -80.2042 348° North 119 137 4,500 360 Climbing Miami Center
01:26PM 27.5936 -80.2122 349° North 125 144 4,900 360 Climbing Miami Center
01:27PM 27.6225 -80.2178 350° North 125 144 5,300 420 Climbing Miami Center
01:28PM 27.6600 -80.2258 349° North 120 138 5,800 420 Climbing Miami Center
01:29PM 27.6933 -80.2339 348° North 120 138 6,200 300 Climbing Miami Center
01:30PM 27.7242 -80.2514 333° Northwest 120 138 6,400 300 Climbing Miami Center
01:31PM 27.7489 -80.2661 332° Northwest 120 138 6,900 300 Climbing Miami Center
01:32PM 27.7819 -80.2811 338° Northwest 115 132 7,000  Climbing Miami Center
01:33PM 27.8200 -80.2589 27° Northeast 123 142 6,900  Descending Miami Center
01:34PM 27.8517 -80.2386 30° Northeast 148 170 7,000 -60 Climbing Miami Center
01:35PM 27.9003 -80.2214 17° North 148 170 6,800 -120 Descending Miami Center
01:37PM 27.9433 -80.2555 325° Northwest  Level FlightAware Approximate
01:37PM 27.9778 -80.2094 325° Northwest 143 165 6,800  Level Miami Center
01:38PM 28.0192 -80.2178 350° North 143 165 6,900  Climbing Miami Center
01:39PM 28.0606 -80.2331 342° North 143 165 6,900  Level Miami Center
01:40PM 28.1000 -80.2508 North 148 170 6,900  Level Miami Center
01:41PM 28.0969 -80.2304 North  Level FlightAware Approximate
01:42PM 28.1783 -80.2836 340° North 148 170 6,900  Level Miami Center
01:43PM 28.2197 -80.2967 344° North 148 170 6,900  Level Miami Center
01:44PM 28.2614 -80.3075 347° North 148 170 6,900  Level Miami Center
01:45PM 28.3006 -80.3228 341° North 148 170 7,000  Climbing Miami Center
01:47PM 28.3667 -80.3500 340° North 152 175 7,000  Level Orlando TRACON
01:48PM 28.4000 -80.3667 336° Northwest 154 177 7,000  Level Orlando TRACON
01:49PM 28.4500 -80.3667 360° North 156 180 7,000 -60 Level Orlando TRACON
01:50PM 28.4833 -80.3833 336° Northwest 165 190 6,900  Descending Orlando TRACON
01:51PM 28.5167 -80.4000 336° Northwest 157 181 7,000  Climbing Orlando TRACON
01:52PM 28.5667 -80.4167 344° North 158 182 7,000  Level Orlando TRACON
01:53PM 28.6167 -80.4333 344° North 157 181 7,000  Level Orlando TRACON
01:54PM 28.6500 -80.4500 336° Northwest 151 174 7,000  Level Orlando TRACON
01:55PM 28.6833 -80.4833 319° Northwest 149 171 7,000  Level Orlando TRACON
01:56PM 28.7167 -80.5000 336° Northwest 145 167 7,000  Level Orlando TRACON
01:57PM 28.7500 -80.5333 319° Northwest 149 171 7,000  Level Orlando TRACON
01:58PM 28.7667 -80.5500 319° Northwest 148 170 7,000 -60 Level Orlando TRACON
01:59PM 28.8431 -80.5933 334° Northwest 155 178 6,900 -120 Descending Jacksonville Center
02:00PM 28.8850 -80.6114 339° North 153 176 6,800  Descending Jacksonville Center
02:01PM 28.9128 -80.6417 316° Northwest 150 173 6,900  Climbing Jacksonville Center
02:02PM 28.9508 -80.6739 323° Northwest 146 168 6,900  Level Jacksonville Center
02:04PM 28.9889 -80.7017 327° Northwest 147 169 6,900  Level Jacksonville Center
02:05PM 29.0208 -80.7269 325° Northwest 148 170 6,900  Level Jacksonville Center
02:06PM 29.0506 -80.7619 314° West 142 163 6,900  Level Jacksonville Center
02:07PM 29.0783 -80.7994 310° West 140 161 6,900  Level Jacksonville Center
02:08PM 29.0994 -80.8250 313° West 133 153 6,900  Level Jacksonville Center
02:09PM 29.1314 -80.8647 313° West 140 161 6,900  Level Jacksonville Center
02:10PM 29.1447 -80.9025 292° West 133 153 6,900  Level Jacksonville Center
02:11PM 29.1578 -80.9406 291° West 135 155 6,900  Level Jacksonville Center
02:12PM 29.1833 -80.9803 306° West 150 173 6,900  Level Jacksonville Center
02:13PM 29.2233 -80.9986 338° Northwest 154 177 6,900  Level Jacksonville Center
02:14PM 29.2631 -81.0144 341° North 154 177 6,900  Level Jacksonville Center
02:15PM 29.3053 -81.0328 339° North 156 180 6,900  Level Jacksonville Center
02:16PM 29.3431 -81.0536 334° Northwest 153 176 6,900  Level Jacksonville Center
02:17PM 29.3747 -81.0814 323° Northwest 144 166 6,900  Level Jacksonville Center
02:18PM 29.4044 -81.1119 318° Northwest 144 166 6,900  Level Jacksonville Center
02:19PM 29.4342 -81.1447 316° Northwest 142 163 6,900  Level Jacksonville Center
02:20PM 29.4617 -81.1706 321° Northwest 136 157 6,900  Level Jacksonville Center
02:21PM 29.4869 -81.1914 324° Northwest 135 155 6,900  Level Jacksonville Center
02:22PM 29.5144 -81.2172 321° Northwest 144 166 6,900  Level Jacksonville Center
02:23PM 29.5503 -81.2478 323° Northwest 153 176 6,900  Level Jacksonville Center
02:24PM 29.5861 -81.2828 320° Northwest 149 171 6,900  Level Jacksonville Center
02:25PM 29.6222 -81.3206 318° Northwest 147 169 6,900  Level Jacksonville Center
02:26PM 29.6497 -81.3439 324° Northwest 146 168 6,900  Level Jacksonville Center
02:27PM 29.6897 -81.3792 323° Northwest 146 168 6,900  Level Jacksonville Center
02:28PM 29.7214 -81.4075 322° Northwest 145 167 6,900  Level Jacksonville Center
02:29PM 29.7425 -81.4286 319° Northwest 138 159 6,900  Level Jacksonville Center
02:30PM 29.7700 -81.4569 318° Northwest 141 162 6,900  Level Jacksonville Center
02:31PM 29.8139 -81.4633 353° North 145 167 6,900  Level Jacksonville Center
02:32PM 29.8494 -81.4678 354° North 144 166 6,900  Level Jacksonville Center
02:33PM 29.8953 -81.4669 North 149 171 6,900  Level Jacksonville Center
02:35PM 29.9808 -81.4731 356° North 151 174 6,900  Level Jacksonville Center
02:36PM 30.0208 -81.4819 349° North 144 166 6,900  Level Jacksonville Center
02:37PM 30.0583 -81.4861 355° North 148 170 6,900  Level Jacksonville Center
02:38PM 30.1000 -81.4881 358° North 155 178 6,900  Level Jacksonville Center
02:39PM 30.1586 -81.4944 355° North 158 182 6,900  Level Jacksonville Center
02:40PM 30.2044 -81.4961 358° North 156 180 6,900  Level Jacksonville Center
02:41PM 30.2486 -81.5003 355° North 153 176 6,900  Level Jacksonville Center
02:42PM 30.2797 -81.5022 357° North 153 176 6,900  Level Jacksonville Center
02:43PM 30.3239 -81.5136 347° North 154 177 6,900  Level Jacksonville Center
02:44PM 30.3678 -81.5178 355° North 146 168 6,900  Level Jacksonville Center
02:45PM 30.4072 -81.5100 10° North 151 174 6,900  Level Jacksonville Center
02:46PM 30.4489 -81.4975 15° North 154 177 6,900  Level Jacksonville Center
02:47PM 30.4906 -81.4894 North 152 175 6,900  Level Jacksonville Center
02:48PM 30.5322 -81.4914 358° North 157 181 6,900  Level Jacksonville Center
02:49PM 30.5908 -81.4906 North 155 178 6,900  Level Jacksonville Center
02:50PM 30.6222 -81.4900 North 155 178 6,900  Level Jacksonville Center
02:51PM 30.6719 -81.4797 10° North 159 183 6,900  Level Jacksonville Center
02:52PM 30.7139 -81.4767 North 159 183 6,900  Level Jacksonville Center
02:53PM 30.7578 -81.4758 North 154 177 6,900  Level Jacksonville Center
02:54PM 30.7972 -81.4706 North 154 177 6,900  Level Jacksonville Center
02:55PM 30.8389 -81.4675 North 154 177 6,900  Level Jacksonville Center
02:57PM 30.8839 -81.4592 North  Level FlightAware Approximate
02:57PM 30.9244 -81.4589 10° North 154 177 6,900  Level Jacksonville Center
02:59PM 31.0058 -81.4528 North 144 166 6,900  Level Jacksonville Center
03:00PM 31.0456 -81.4475 21° North 139 160 6,900  Level Jacksonville Center
03:01PM 31.0485 -81.4340 21° North  Level FlightAware Approximate
03:02PM 31.1328 -81.4267 12° North 150 173 6,900  Level Jacksonville Center
03:04PM 31.1623 -81.4100 10° North  Level FlightAware Approximate
03:04PM 31.2164 -81.4131 North 156 180 6,900  Level Jacksonville Center
03:06PM 31.2928 -81.3464 37° Northeast 158 182 6,900  Level Jacksonville Center
03:07PM 31.3256 -81.3069 46° Northeast 164 189 6,900  Level Jacksonville Center
03:08PM 31.3567 -81.2794 37° Northeast 164 189 6,900  Level Jacksonville Center
03:09PM 31.3981 -81.2447 36° Northeast 159 183 6,900  Level Jacksonville Center
03:10PM 31.4331 -81.2150 36° Northeast 153 176 6,900  Level Jacksonville Center
03:11PM 31.4661 -81.1828 40° Northeast 153 176 6,900  Level Jacksonville Center
03:12PM 31.4969 -81.1553 37° Northeast 148 170 6,900  Level Jacksonville Center
03:13PM 31.5278 -81.1231 42° Northeast 148 170 6,900  Level Jacksonville Center
03:14PM 31.5669 -81.0883 37° Northeast 153 176 6,900  Level Jacksonville Center
03:15PM 31.6000 -81.0583 38° Northeast 148 170 6,900  Level Jacksonville Center
03:16PM 31.6331 -81.0283 38° Northeast 148 170 6,900  Level Jacksonville Center
03:18PM 31.6676 -80.9944 40° Northeast  Level FlightAware Approximate
03:25PM 31.8810 -80.7840 40° Northeast  Level FlightAware Approximate
03:26PM 31.9114 -80.7539 40° Northeast  Level FlightAware Approximate
03:27PM 31.9419 -80.7237 40° Northeast  Level FlightAware Approximate
03:28PM 31.9723 -80.6935 40° Northeast  Level FlightAware Approximate
03:29PM 32.0028 -80.6634 40° Northeast  Level FlightAware Approximate
03:30PM 32.0332 -80.6331 40° Northeast  Level FlightAware Approximate
03:31PM 32.0636 -80.6029 40° Northeast  Level FlightAware Approximate
03:32PM 32.0940 -80.5726 40° Northeast  Level FlightAware Approximate
03:33PM 32.1253 -80.5430 38° Northeast  Level FlightAware Approximate
03:34PM 32.1565 -80.5138 38° Northeast  Level FlightAware Approximate
03:35PM 32.1877 -80.4847 38° Northeast  Level FlightAware Approximate
03:36PM 32.2189 -80.4555 38° Northeast  Level FlightAware Approximate
03:37PM 32.2500 -80.4262 38° Northeast  Level FlightAware Approximate
03:38PM 32.2812 -80.3970 38° Northeast  Level FlightAware Approximate
03:39PM 32.3123 -80.3678 38° Northeast  Level FlightAware Approximate
03:40PM 32.3435 -80.3385 38° Northeast  Level FlightAware Approximate
03:41PM 32.3744 -80.3089 40° Northeast  Level FlightAware Approximate
03:42PM 32.4048 -80.2785 40° Northeast  Level FlightAware Approximate
03:43PM 32.4352 -80.2482 40° Northeast  Level FlightAware Approximate
03:44PM 32.4656 -80.2178 40° Northeast  Level FlightAware Approximate
03:45PM 32.4960 -80.1873 40° Northeast  Level FlightAware Approximate
03:46PM 32.5264 -80.1570 40° Northeast  Level FlightAware Approximate
03:47PM 32.5568 -80.1265 40° Northeast  Level FlightAware Approximate
03:48PM 32.5872 -80.0961 40° Northeast  Level FlightAware Approximate